PST,Max TemperatureF,Mean TemperatureF,Min TemperatureF,Max Dew PointF,MeanDew PointF,Min DewpointF,Max Humidity, Mean Humidity, Min Humidity, Max Sea Level PressureIn, Mean Sea Level PressureIn, Min Sea Level PressureIn, Max VisibilityMiles, Mean VisibilityMiles, Min VisibilityMiles, Max Wind SpeedMPH, Mean Wind SpeedMPH, Max Gust SpeedMPH,PrecipitationIn, CloudCover, Events, WindDirDegrees
2012-11-1,66,60,53,64,59,54,100,99,94,30.03,30.00,29.98,10,10,8,12,7,,0.00,2,,333
2012-11-2,71,60,48,61,54,48,100,96,57,30.08,30.04,30.01,10,9,0,12,7,,0.00,1,Fog,4
2012-11-3,75,58,42,61,50,43,100,92,44,30.16,30.10,30.07,10,7,0,9,2,,0.00,0,Fog,353
2012-11-4,80,63,46,61,51,46,100,90,39,30.23,30.17,30.14,10,10,2,5,2,,0.00,0,,154
2012-11-5,82,64,46,57,53,46,100,89,35,30.20,30.12,30.06,10,10,10,6,2,,0.00,0,,125
2012-11-6,84,65,46,59,53,46,100,87,33,30.11,30.05,29.99,10,8,2,5,2,,0.00,0,,128
2012-11-7,82,64,46,61,51,46,100,85,30,30.04,29.96,29.90,10,8,3,10,2,,0.00,0,,259
2012-11-8,66,56,46,55,48,32,100,88,28,29.99,29.91,29.87,10,10,5,17,6,23,0.00,3,Rain,334
2012-11-9,55,46,37,52,44,37,100,97,67,29.99,29.95,29.91,10,8,0,12,2,18,0.17,4,Rain,165
2012-11-10,59,49,39,50,42,34,100,90,41,30.25,30.10,29.99,10,10,10,8,4,,0.09,3,,216
2012-11-11,60,46,32,43,37,32,100,89,34,30.40,30.33,30.17,10,10,7,6,2,,0.00,0,,34
2012-11-12,64,48,33,45,37,32,100,83,30,30.40,30.34,30.25,10,10,10,9,2,,0.00,0,,343
2012-11-13,68,50,33,48,40,34,100,90,30,30.30,30.21,30.11,10,10,9,5,1,,0.00,0,,126
2012-11-14,69,53,37,50,43,37,100,89,33,30.15,30.10,30.04,10,7,4,5,1,,0.00,1,,154
2012-11-15,66,52,37,52,44,37,100,88,40,30.05,30.02,29.98,6,4,3,9,2,,0.00,2,,163
2012-11-16,62,55,48,63,55,48,100,99,88,30.05,29.98,29.94,10,7,4,18,5,,0.01,6,Rain,145
2012-11-17,66,60,53,64,57,54,100,100,94,30.05,29.96,29.90,10,9,3,25,11,34,0.15,5,Rain,168
2012-11-18,62,56,50,63,55,50,100,100,100,30.18,30.10,30.03,10,9,3,8,4,,0.04,5,Rain,162
2012-11-19,68,58,48,59,52,48,100,96,68,30.26,30.20,30.17,10,7,0,5,1,,0.00,2,,327
2012-11-20,69,56,44,59,52,45,100,92,46,30.20,30.13,30.08,10,6,2,12,2,,0.00,1,,165
2012-11-21,66,58,51,64,55,52,100,98,82,30.18,30.13,30.08,10,8,2,12,5,,0.00,4,,59
2012-11-22,62,52,42,61,49,43,100,99,88,30.26,30.20,30.17,10,7,0,14,7,,0.00,2,Fog,9
2012-11-23,66,54,41,63,47,41,100,98,73,30.29,30.23,30.18,10,4,0,5,0,,0.00,4,Fog,59
2012-11-24,75,58,42,64,48,43,100,97,53,30.21,30.13,30.04,10,3,0,8,1,,0.00,4,Fog,163
2012-11-25,64,52,39,63,46,39,100,99,77,30.04,29.99,29.93,10,3,0,7,1,,0.00,4,Fog,52
2012-11-26,68,54,39,64,45,39,100,98,64,30.08,30.03,29.99,10,2,0,4,0,,0.00,3,Fog,150
2012-11-27,60,50,39,61,48,39,100,100,100,30.14,30.07,30.02,3,2,0,6,1,,0.00,3,Fog,247
2012-11-28,62,55,48,63,54,48,100,100,100,30.09,30.01,29.94,10,6,2,29,9,39,0.00,4,Rain,179
2012-11-29,64,58,51,64,59,52,100,100,100,30.12,30.05,29.95,10,8,4,20,8,26,0.01,4,,175
2012-11-30,64,60,55,64,60,55,100,100,100,30.09,29.99,29.92,10,7,2,30,18,39,0.01,7,Rain,177